Sunday, September 21, 2014
16:15 UTC
  |  Log In   |  Register Free
Airport Search:

Kingsville Nas Airport
(KNQI)

FAA data valid effective September 18, 2014 - November 13, 2014 (unless otherwise noted).

 
 
 
 
 
 
 
 
 
 
 
 
 
 

Current Aviation Weather for Kingsville Nas Airport (KNQI)

The most recent METAR observation for KNQI was updated at: 1614
METAR Summary (Translated METAR)
KNQI
211556Z AUTO 05015KT 10SM FEW012 BKN020 BKN048 29/26 A3001 RMK AO2 RAE1459 SLP157 P0000 T02890256 $
KRBO
211455Z AUTO 03010KT 10SM SCT010 BKN031 OVC080 26/25 A3000 RMK AO2 T02630250
(17.5 nm NE from KNQI)
KALI
211553Z AUTO 05010KT 10SM BKN012 BKN080 BKN110 27/24 A3002 RMK AO2 SLP162 T02720244
(18.2 nm NW from KNQI)
TAF Summary (Translated TAF)
KNQI
2115/2215 06006KT 9999 VCTS SCT025CB BKN080 QNH2977INS TEMPO 2115/2121 VRB20G30KT 4800 TSRA BKN025CB BKN080 FM212100 10008KT 9999 FEW020 SCT030 QNH2989INS FM220300 VRB04KT 9999 FEW040 QNH2988INS TEMPO 2210/2212 6000 BR BECMG 2212/2214 05008G12KT QNH2990INS AUTOMATED SENSOR METWATCH 2115 TIL 2120 T33/2121Z T23/2112Z FN00098
KALI
(18.2 nm NW from KNQI)
211233Z 2113/2212 03004KT P6SM VCSH SCT005 BKN080 TEMPO 2113/2114 4SM SHRA BR BKN025 FM211400 07008KT P6SM VCSH SCT015 FM211800 09012KT P6SM SCT035 FM220000 08005KT P6SM SCT025 FM220600 02003KT P6SM SCT015
  Airport Weather Conditions for KNQI

 Current Weather at NQI
80° F
Light Rain
North winds at 10.4 mph
NQI NOAA Radar

Pressure: 29.99 in
Humidity: 94%
Wind: North at 10.4 MPH (9 KT)
Dew Point: 78.1°F
Visibility: 10.00 mi


Airport Weather Forecast for KNQI

Translated METAR and TAF for KNQI
Translated METAR for KNQI (1609 UTC 21 September 2014)
found at http://aviationweather.gov/adds/metars/
 
METAR text: KNQI 211556Z AUTO 05015KT 10SM FEW012 BKN020 BKN048 29/26 A3001 RMK AO2 RAE1459 SLP157 P0000 T02890256 $
Conditions at: KNQI (KINGSVILLE NAS , TX, US) observed 1556 UTC 21 September 2014
Temperature: 28.9°C (84°F)
Dewpoint: 25.6°C (78°F) [RH = 82%]
Pressure (altimeter): 30.01 inches Hg (1016.3 mb)
[Sea-level pressure: 1015.7 mb]
Winds: from the NE (50 degrees) at 17 MPH (15 knots; 7.8 m/s)
Visibility: 10 or more miles (16+ km)
Ceiling: 2000 feet AGL
Clouds: few clouds at 1200 feet AGL
broken clouds at 2000 feet AGL
broken clouds at 4800 feet AGL
Weather:
SOME DATA ABOVE MAY BE INACCURATE!!!
"$" is an indication the sensor requires maintenance
Translated TAF for KNQI
Forecast for: KNQI (KINGSVILLE NAS , TX, US)
TAF Text: TAF KNQI 2115/2215 06006KT 9999 VCTS SCT025CB BKN080 QNH2977INS
Forecast period: 1500 to 2100 UTC 21 September 2014
Forecast type: FROM: standard forecast or significant change
Winds: from the ENE (60 degrees) at 7 MPH (6 knots; 3.1 m/s)
Visibility: 6 or more miles (10+ km)
Ceiling: 8000 feet AGL
Clouds: scattered clouds at 2500 feet AGL
broken clouds at 8000 feet AGL
Weather: VCTS  (thunderstorm in vicinity)
TAF Text: TEMPO 2115/2121 VRB20G30KT 4800 TSRA BKN025CB BKN080
Forecast period: 1500 to 2100 UTC 21 September 2014
Forecast type: TEMPORARY: The following changes expected for less than half the time period
Winds: variable direction winds at 23 MPH (20 knots; 10.4 m/s)
gusting to 34 MPH (30 knots; 15.6 m/s)
Visibility: 2.98 miles (4.80 km)
Ceiling: 2500 feet AGL
Clouds: broken clouds at 2500 feet AGL
broken clouds at 8000 feet AGL
Weather: TSRA  (rain associated with thunderstorm(s))
TAF Text: FM212100 10008KT 9999 FEW020 SCT030 QNH2989INS
Forecast period: 2100 UTC 21 September 2014 to 0300 UTC 22 September 2014
Forecast type: FROM: standard forecast or significant change
Winds: from the E (100 degrees) at 9 MPH (8 knots; 4.2 m/s)
Visibility: 6 or more miles (10+ km)
Clouds: few clouds at 2000 feet AGL
scattered clouds at 3000 feet AGL
Weather: no significant weather forecast for this period
TAF Text: FM220300 VRB04KT 9999 FEW040 QNH2988INS
Forecast period: 0300 to 1200 UTC 22 September 2014
Forecast type: FROM: standard forecast or significant change
Winds: variable direction winds at 5 MPH (4 knots; 2.1 m/s)
Visibility: 6 or more miles (10+ km)
Clouds: few clouds at 4000 feet AGL
Weather: no significant weather forecast for this period
TAF Text: TEMPO 2210/2212 6000 BR
Forecast period: 1000 to 1200 UTC 22 September 2014
Forecast type: TEMPORARY: The following changes expected for less than half the time period
Visibility: 4 miles (6 km)
Weather: BR  (mist)
TAF Text: BECMG 2212/2214 05008G12KT QNH2990INS AUTOMATED SENSOR METWATCH 2115 TIL 2120 T33/2121Z T23/2112Z FN00098
Forecast period: 1200 to 1500 UTC 22 September 2014
Forecast type: BECOMING: Conditions expected to become as follows by 1400 UTC 22 September 2014
Winds: from the NE (50 degrees) at 9 MPH (8 knots; 4.2 m/s)
gusting to 14 MPH (12 knots; 6.2 m/s)
Visibility: 1.31 miles (2.11 km)
Clouds: few clouds at 4000 feet AGL
Weather: no significant weather forecast for this period

Find All Airport Services Find A Hotel Find A Rental Car Find A Golf Course Find A Restaurant $100 Hamburger



FBO's on the Field
FBO Company Facility Photos Services Transportation Aviation Fuel Prices: Prices include tax
Catering Weather Repair Courtesy Rental Type 100LL JetA JetA+ MOGAS 8087
 
Add another FBO Facility Photos Catering Weather Repair Courtesy Rental Type 100LL JetA JetA+ MOGAS 8087
Services Transportation Aviation Fuel Prices: Prices include tax
There are no FBO's currently reporting fuel at NQI. List your FBO now


model-print
model-print
model-print
model-print